Time;durP1;ratioP1;P1;durP2;ratioP2;P2;SDS_P1;SDS_P2;PMS_P1;PMS_P2;Temp;Humidity;BMP_temperature;BMP_pressure;BME280_temperature;BME280_humidity;BME280_pressure;Samples;Min_cycle;Max_cycle;Signal;HPM_P1;HPM_P2
2022/03/29 00:01:03;;;;;;;24.42;16.20;;;;;;;;;;6186440;23;20323;-84
2022/03/29 00:03:29;;;;;;;26.05;15.88;;;;;;;;;;6160367;23;20156;-84
2022/03/29 00:05:55;;;;;;;25.42;15.25;;;;;;;;;;6186749;23;20136;-85
2022/03/29 00:08:21;;;;;;;23.33;15.40;;;;;;;;;;6186672;23;20350;-84
2022/03/29 00:10:47;;;;;;;28.92;16.67;;;;;;;;;;6160015;23;20063;-84
2022/03/29 00:13:13;;;;;;;24.55;15.82;;;;;;;;;;6135627;23;20021;-84
2022/03/29 00:15:39;;;;;;;26.83;16.00;;;;;;;;;;6186553;23;20016;-84
2022/03/29 00:18:05;;;;;;;25.40;14.88;;;;;;;;;;6160182;23;20089;-84
2022/03/29 00:20:31;;;;;;;24.90;15.55;;;;;;;;;;6159892;23;20044;-84
2022/03/29 00:22:57;;;;;;;24.25;15.38;;;;;;;;;;6160022;23;20020;-84
2022/03/29 00:25:23;;;;;;;29.42;17.00;;;;;;;;;;6186574;23;20027;-84
2022/03/29 00:27:49;;;;;;;28.65;15.85;;;;;;;;;;6160091;23;20024;-85
2022/03/29 00:30:16;;;;;;;28.73;16.40;;;;;;;;;;6186659;23;20009;-84
2022/03/29 00:32:43;;;;;;;27.95;15.27;;;;;;;;;;6186119;23;20118;-85
2022/03/29 00:35:10;;;;;;;25.02;15.93;;;;;;;;;;6159907;23;20367;-84
2022/03/29 00:37:36;;;;;;;25.88;15.95;;;;;;;;;;6186430;23;20040;-84
2022/03/29 00:40:03;;;;;;;27.05;16.25;;;;;;;;;;6160058;23;20021;-84
2022/03/29 00:42:30;;;;;;;29.75;16.60;;;;;;;;;;6186394;23;20013;-84
2022/03/29 00:44:56;;;;;;;26.08;15.75;;;;;;;;;;6186532;23;20024;-84
2022/03/29 00:47:22;;;;;;;26.83;15.30;;;;;;;;;;6159321;23;20465;-85
2022/03/29 00:49:48;;;;;;;24.27;16.08;;;;;;;;;;6159597;23;20013;-85
2022/03/29 00:52:15;;;;;;;26.25;15.82;;;;;;;;;;6159583;23;20013;-85
2022/03/29 00:54:41;;;;;;;30.90;17.75;;;;;;;;;;6186115;23;20019;-84
2022/03/29 00:57:07;;;;;;;26.02;14.80;;;;;;;;;;6159589;23;20017;-84
2022/03/29 00:59:33;;;;;;;27.75;16.13;;;;;;;;;;6159466;23;20338;-84
2022/03/29 01:02:00;;;;;;;27.20;16.70;;;;;;;;;;6186072;23;20012;-85
2022/03/29 01:04:27;;;;;;;27.50;16.23;;;;;;;;;;6159778;23;20023;-84
2022/03/29 01:06:57;;;;;;;28.08;16.98;;;;;;;;;;6186064;23;20060;-84
2022/03/29 01:09:23;;;;;;;26.08;16.90;;;;;;;;;;6160249;23;20355;-84
2022/03/29 01:11:49;;;;;;;27.67;16.88;;;;;;;;;;6185641;23;20375;-84
2022/03/29 01:14:15;;;;;;;28.63;17.33;;;;;;;;;;6159639;23;20013;-84
2022/03/29 01:19:26;;;;;;;28.02;17.25;;;;;;;;;;6186258;23;20092;-84
2022/03/29 01:21:59;;;;;;;28.92;17.67;;;;;;;;;;6185572;23;20016;-85
2022/03/29 01:24:26;;;;;;;28.00;17.42;;;;;;;;;;6159583;23;20013;-84
2022/03/29 01:26:59;;;;;;;33.88;18.30;;;;;;;;;;6159201;23;20016;-85
2022/03/29 01:29:25;;;;;;;28.75;18.27;;;;;;;;;;6185717;23;20450;-84
2022/03/29 01:31:51;;;;;;;27.90;17.48;;;;;;;;;;6159164;23;20017;-84
2022/03/29 01:34:21;;;;;;;31.58;18.35;;;;;;;;;;6159473;23;20027;-84
2022/03/29 01:36:47;;;;;;;32.20;18.95;;;;;;;;;;6185815;23;20024;-84
2022/03/29 01:39:13;;;;;;;28.58;18.27;;;;;;;;;;6186003;23;20024;-84
2022/03/29 01:41:39;;;;;;;30.73;18.75;;;;;;;;;;6159019;23;20330;-84
2022/03/29 01:44:06;;;;;;;33.45;19.67;;;;;;;;;;6159241;23;20024;-84
2022/03/29 01:46:32;;;;;;;29.75;18.33;;;;;;;;;;6185757;23;20391;-84
2022/03/29 01:48:59;;;;;;;30.85;19.77;;;;;;;;;;6159235;23;20430;-84
2022/03/29 01:51:25;;;;;;;29.33;18.73;;;;;;;;;;6185385;23;20017;-84
2022/03/29 01:53:55;;;;;;;29.10;17.80;;;;;;;;;;6185571;23;20157;-84
2022/03/29 01:56:21;;;;;;;31.33;19.40;;;;;;;;;;6159027;23;20028;-84
2022/03/29 01:58:47;;;;;;;31.50;18.40;;;;;;;;;;6185598;23;20021;-84
2022/03/29 02:01:13;;;;;;;30.40;19.25;;;;;;;;;;6159120;23;20402;-84
2022/03/29 02:03:39;;;;;;;30.05;18.00;;;;;;;;;;6158852;23;20017;-84
2022/03/29 02:06:05;;;;;;;29.13;18.48;;;;;;;;;;6159157;23;20017;-84
2022/03/29 02:08:31;;;;;;;31.67;18.90;;;;;;;;;;6158826;23;20052;-84
2022/03/29 02:10:57;;;;;;;32.10;18.98;;;;;;;;;;6159055;23;20463;-84
2022/03/29 02:13:23;;;;;;;28.65;18.38;;;;;;;;;;6158833;23;20132;-86
2022/03/29 02:15:49;;;;;;;31.23;19.00;;;;;;;;;;6159162;23;20017;-84
2022/03/29 02:18:15;;;;;;;37.17;18.10;;;;;;;;;;6158856;23;20517;-84
2022/03/29 02:20:41;;;;;;;33.53;19.88;;;;;;;;;;6159088;23;20277;-84
2022/03/29 02:23:08;;;;;;;33.70;18.98;;;;;;;;;;6185022;23;20462;-85
2022/03/29 02:25:34;;;;;;;31.38;18.88;;;;;;;;;;6185611;23;20017;-84
2022/03/29 02:28:00;;;;;;;31.42;18.70;;;;;;;;;;6185347;23;20334;-84
2022/03/29 02:30:26;;;;;;;33.58;18.60;;;;;;;;;;6158970;23;20017;-84
2022/03/29 02:32:52;;;;;;;34.15;21.02;;;;;;;;;;6158566;23;20025;-84
2022/03/29 02:35:18;;;;;;;32.90;20.40;;;;;;;;;;6185508;23;20016;-85
2022/03/29 02:37:45;;;;;;;36.38;19.92;;;;;;;;;;6158717;23;20028;-85
2022/03/29 02:40:13;;;;;;;36.15;20.48;;;;;;;;;;6158800;23;20075;-85
2022/03/29 02:42:49;;;;;;;34.70;20.35;;;;;;;;;;6185167;23;20013;-84
2022/03/29 02:45:19;;;;;;;33.67;20.02;;;;;;;;;;6185488;23;20017;-85
2022/03/29 02:47:46;;;;;;;37.25;20.33;;;;;;;;;;6158498;23;20017;-84
2022/03/29 02:50:12;;;;;;;31.42;20.55;;;;;;;;;;6185472;23;20014;-85
2022/03/29 02:52:46;;;;;;;35.75;21.05;;;;;;;;;;6158215;23;20017;-85
2022/03/29 02:55:12;;;;;;;36.28;21.60;;;;;;;;;;6134217;23;20021;-85
2022/03/29 02:57:38;;;;;;;34.60;21.15;;;;;;;;;;6158575;23;20049;-84
2022/03/29 03:00:05;;;;;;;39.70;20.25;;;;;;;;;;6158670;23;20024;-85
2022/03/29 03:02:32;;;;;;;34.00;20.25;;;;;;;;;;6158372;23;20024;-85
2022/03/29 03:04:59;;;;;;;35.60;20.20;;;;;;;;;;6134125;23;20023;-84
2022/03/29 03:07:25;;;;;;;36.28;20.08;;;;;;;;;;6158387;23;20027;-85
2022/03/29 03:09:51;;;;;;;33.25;19.10;;;;;;;;;;6159046;23;20383;-84
2022/03/29 03:12:17;;;;;;;33.03;20.45;;;;;;;;;;6184365;23;20020;-85
2022/03/29 03:14:43;;;;;;;34.63;20.02;;;;;;;;;;6158608;23;20021;-85
2022/03/29 03:17:09;;;;;;;32.78;20.30;;;;;;;;;;6185092;23;20009;-84
2022/03/29 03:19:35;;;;;;;31.38;19.15;;;;;;;;;;6158644;23;20039;-84
2022/03/29 03:22:01;;;;;;;34.58;20.00;;;;;;;;;;6158235;23;20019;-84
2022/03/29 03:24:27;;;;;;;32.72;20.40;;;;;;;;;;6185065;23;20020;-84
2022/03/29 03:26:53;;;;;;;31.10;19.42;;;;;;;;;;6185256;23;20017;-84
2022/03/29 03:29:19;;;;;;;29.88;19.13;;;;;;;;;;6158252;23;20072;-85
2022/03/29 03:31:45;;;;;;;35.67;21.15;;;;;;;;;;6158582;23;20013;-84
2022/03/29 03:34:11;;;;;;;36.20;20.08;;;;;;;;;;6158352;23;20016;-84
2022/03/29 03:36:36;;;;;;;32.67;19.48;;;;;;;;;;6185265;23;20032;-84
2022/03/29 03:39:03;;;;;;;34.95;19.35;;;;;;;;;;6184940;23;20334;-84
2022/03/29 03:41:29;;;;;;;38.78;20.00;;;;;;;;;;6158621;23;20052;-85
2022/03/29 03:43:55;;;;;;;33.55;18.85;;;;;;;;;;6158305;23;20029;-84
2022/03/29 03:46:21;;;;;;;35.35;20.50;;;;;;;;;;6158967;23;20017;-84
2022/03/29 03:48:47;;;;;;;35.00;20.08;;;;;;;;;;6184433;23;20080;-85
2022/03/29 03:51:13;;;;;;;35.45;19.95;;;;;;;;;;6184772;23;20112;-85
2022/03/29 03:53:39;;;;;;;39.47;19.65;;;;;;;;;;6158000;23;20024;-84
2022/03/29 03:56:05;;;;;;;34.20;20.00;;;;;;;;;;6133960;23;20558;-85
2022/03/29 03:58:31;;;;;;;32.95;19.83;;;;;;;;;;6133733;23;20370;-84
2022/03/29 04:00:57;;;;;;;30.13;18.80;;;;;;;;;;6185151;23;20024;-85
2022/03/29 04:03:23;;;;;;;32.67;19.25;;;;;;;;;;6158078;23;20442;-85
2022/03/29 04:05:49;;;;;;;33.85;19.48;;;;;;;;;;6185118;23;20017;-85
2022/03/29 04:08:15;;;;;;;35.63;19.73;;;;;;;;;;6158132;23;20458;-84
2022/03/29 04:10:41;;;;;;;32.13;19.38;;;;;;;;;;6185099;23;20015;-84
2022/03/29 04:13:08;;;;;;;37.05;19.60;;;;;;;;;;6158213;23;20012;-84
2022/03/29 04:15:34;;;;;;;36.20;20.17;;;;;;;;;;6158386;23;20092;-84
2022/03/29 04:18:01;;;;;;;36.60;18.95;;;;;;;;;;6158086;23;20056;-84
2022/03/29 04:20:29;;;;;;;39.03;20.33;;;;;;;;;;6158755;23;20093;-84
2022/03/29 04:22:55;;;;;;;39.38;21.55;;;;;;;;;;6184505;23;20488;-84
2022/03/29 04:25:21;;;;;;;34.50;18.85;;;;;;;;;;6186478;23;20013;-84
2022/03/29 04:27:47;;;;;;;33.78;19.63;;;;;;;;;;6161743;23;20024;-84
2022/03/29 04:30:13;;;;;;;36.33;20.35;;;;;;;;;;6161635;23;20021;-84
2022/03/29 04:32:39;;;;;;;37.97;20.73;;;;;;;;;;6159903;23;20024;-84
2022/03/29 04:35:05;;;;;;;37.20;20.48;;;;;;;;;;6186176;23;20109;-84
2022/03/29 04:37:31;;;;;;;31.67;18.88;;;;;;;;;;6186656;23;20096;-85
2022/03/29 04:39:57;;;;;;;31.05;18.75;;;;;;;;;;6186423;23;20017;-84
2022/03/29 04:42:23;;;;;;;31.52;19.77;;;;;;;;;;6159910;23;20028;-85
2022/03/29 04:44:49;;;;;;;34.75;19.40;;;;;;;;;;6159729;23;20021;-84
2022/03/29 04:47:15;;;;;;;34.33;19.42;;;;;;;;;;6159867;23;20079;-85
2022/03/29 04:49:41;;;;;;;31.13;19.25;;;;;;;;;;6159647;23;20053;-85
2022/03/29 04:52:07;;;;;;;35.80;20.33;;;;;;;;;;6159899;23;20017;-85
2022/03/29 04:54:33;;;;;;;33.17;19.55;;;;;;;;;;6159529;23;20368;-85
2022/03/29 04:57:00;;;;;;;34.05;19.10;;;;;;;;;;6160214;23;20048;-85
2022/03/29 04:59:26;;;;;;;36.15;21.23;;;;;;;;;;6159990;23;20017;-85
2022/03/29 05:01:52;;;;;;;34.20;19.75;;;;;;;;;;6159684;23;20032;-85
2022/03/29 05:04:19;;;;;;;34.72;20.42;;;;;;;;;;6159575;23;20430;-85
2022/03/29 05:06:45;;;;;;;33.22;20.27;;;;;;;;;;6159795;23;20021;-85
2022/03/29 05:09:11;;;;;;;37.92;20.45;;;;;;;;;;6159453;23;20045;-84
2022/03/29 05:11:37;;;;;;;31.80;19.38;;;;;;;;;;6186299;23;20020;-85
2022/03/29 05:14:03;;;;;;;33.10;20.83;;;;;;;;;;6185971;23;20084;-84
2022/03/29 05:16:29;;;;;;;34.35;20.20;;;;;;;;;;6159629;23;20024;-85
2022/03/29 05:18:55;;;;;;;36.55;20.27;;;;;;;;;;6159441;23;20017;-85
2022/03/29 05:21:21;;;;;;;37.85;19.92;;;;;;;;;;6186039;23;20013;-84
2022/03/29 05:23:47;;;;;;;34.95;20.33;;;;;;;;;;6159334;23;20013;-85
2022/03/29 05:26:13;;;;;;;35.97;20.52;;;;;;;;;;6134997;23;20021;-85
2022/03/29 05:28:40;;;;;;;36.42;21.15;;;;;;;;;;6185935;23;20163;-85
2022/03/29 05:31:06;;;;;;;33.28;19.95;;;;;;;;;;6159483;23;20024;-85
2022/03/29 05:33:32;;;;;;;32.38;20.60;;;;;;;;;;6134550;23;20092;-85
2022/03/29 05:35:58;;;;;;;33.40;20.20;;;;;;;;;;6159407;23;20063;-85
2022/03/29 05:38:24;;;;;;;35.65;19.67;;;;;;;;;;6186069;23;20013;-84
2022/03/29 05:40:50;;;;;;;38.83;21.42;;;;;;;;;;6185888;23;20088;-85
2022/03/29 05:43:17;;;;;;;35.85;21.50;;;;;;;;;;6159322;23;20092;-84
2022/03/29 05:45:45;;;;;;;43.28;21.20;;;;;;;;;;6159105;23;20025;-84
2022/03/29 05:50:55;;;;;;;38.50;20.13;;;;;;;;;;6185763;23;20017;-85
2022/03/29 05:53:22;;;;;;;34.17;19.63;;;;;;;;;;6159008;23;20017;-85
2022/03/29 05:55:48;;;;;;;33.35;20.70;;;;;;;;;;6158971;23;20071;-84
2022/03/29 05:58:16;;;;;;;39.72;20.73;;;;;;;;;;6159296;23;20021;-85
2022/03/29 06:00:43;;;;;;;36.88;21.10;;;;;;;;;;6185635;23;20017;-85
2022/03/29 06:03:10;;;;;;;35.85;20.90;;;;;;;;;;6159164;23;20324;-85
2022/03/29 06:05:36;;;;;;;36.53;21.05;;;;;;;;;;6159032;23;20017;-84
2022/03/29 06:08:02;;;;;;;37.15;21.17;;;;;;;;;;6185807;23;20024;-85
2022/03/29 06:10:28;;;;;;;32.65;20.85;;;;;;;;;;6158851;23;20379;-85
2022/03/29 06:12:54;;;;;;;31.90;20.88;;;;;;;;;;6185774;23;20009;-84
2022/03/29 06:15:20;;;;;;;39.88;21.30;;;;;;;;;;6158925;23;20013;-85
2022/03/29 06:17:46;;;;;;;35.53;20.27;;;;;;;;;;6159202;23;20013;-84
2022/03/29 06:20:12;;;;;;;35.80;20.73;;;;;;;;;;6158823;23;20096;-84
2022/03/29 06:22:40;;;;;;;39.67;21.55;;;;;;;;;;6158926;23;20027;-84
2022/03/29 06:25:08;;;;;;;38.38;21.65;;;;;;;;;;6185086;23;20018;-85
2022/03/29 06:27:34;;;;;;;37.80;19.65;;;;;;;;;;6185475;23;20057;-84
2022/03/29 06:29:59;;;;;;;40.33;21.45;;;;;;;;;;6158714;23;20083;-84
2022/03/29 06:32:25;;;;;;;35.90;20.27;;;;;;;;;;6158879;23;20388;-85
2022/03/29 06:34:51;;;;;;;43.95;21.20;;;;;;;;;;6134136;23;20013;-85
2022/03/29 06:37:17;;;;;;;37.83;21.58;;;;;;;;;;6185231;23;20366;-85
2022/03/29 06:39:43;;;;;;;41.88;21.58;;;;;;;;;;6158625;23;20012;-85
2022/03/29 06:42:09;;;;;;;36.58;21.42;;;;;;;;;;6158895;23;20013;-88
2022/03/29 06:44:35;;;;;;;35.08;20.17;;;;;;;;;;6158684;23;20012;-85
2022/03/29 06:47:02;;;;;;;38.83;21.23;;;;;;;;;;6158031;23;20023;-85
2022/03/29 06:49:29;;;;;;;36.08;21.58;;;;;;;;;;6184472;23;20095;-84
2022/03/29 06:51:55;;;;;;;36.25;21.90;;;;;;;;;;6158255;23;20454;-84
2022/03/29 06:54:21;;;;;;;38.10;21.98;;;;;;;;;;6153083;23;20027;-84
2022/03/29 06:56:47;;;;;;;36.33;22.33;;;;;;;;;;6153535;23;20014;-84
2022/03/29 06:59:13;;;;;;;35.35;22.13;;;;;;;;;;6153388;23;20014;-84
2022/03/29 07:01:39;;;;;;;38.65;21.23;;;;;;;;;;6153704;23;20443;-88
2022/03/29 07:04:07;;;;;;;38.63;21.75;;;;;;;;;;6155289;23;20017;-86
2022/03/29 07:06:33;;;;;;;42.53;22.30;;;;;;;;;;6153584;23;20025;-84
2022/03/29 07:11:46;;;;;;;35.05;20.17;;;;;;;;;;6154659;23;20447;-88
2022/03/29 07:14:12;;;;;;;42.35;20.55;;;;;;;;;;6153445;23;20386;-85
2022/03/29 07:16:39;;;;;;;38.10;21.02;;;;;;;;;;6153196;23;20018;-84
2022/03/29 07:19:08;;;;;;;32.25;19.50;;;;;;;;;;6154760;23;20458;-84
2022/03/29 07:21:34;;;;;;;34.67;20.67;;;;;;;;;;6154449;23;20328;-84
2022/03/29 07:24:01;;;;;;;35.53;21.33;;;;;;;;;;6153329;23;20017;-84
2022/03/29 07:26:30;;;;;;;36.80;21.05;;;;;;;;;;6128496;23;20017;-84
2022/03/29 07:28:56;;;;;;;38.70;22.27;;;;;;;;;;6153340;23;20014;-84
2022/03/29 07:31:22;;;;;;;33.47;20.42;;;;;;;;;;6153076;23;20013;-84
2022/03/29 07:33:48;;;;;;;32.55;20.65;;;;;;;;;;6153277;23;20013;-84
2022/03/29 07:36:14;;;;;;;37.58;20.80;;;;;;;;;;6155028;23;20013;-84
2022/03/29 07:38:40;;;;;;;40.33;22.27;;;;;;;;;;6153388;23;20447;-84
2022/03/29 07:41:07;;;;;;;37.67;20.98;;;;;;;;;;6153066;23;20455;-84
2022/03/29 07:43:33;;;;;;;37.03;20.17;;;;;;;;;;6153273;23;20462;-84
2022/03/29 07:45:59;;;;;;;35.53;20.33;;;;;;;;;;6154827;23;20017;-84
2022/03/29 07:48:25;;;;;;;37.58;22.52;;;;;;;;;;6155051;23;20018;-84
2022/03/29 07:50:52;;;;;;;44.58;22.52;;;;;;;;;;6154481;23;20343;-84
2022/03/29 07:53:18;;;;;;;43.80;22.52;;;;;;;;;;6162884;23;20187;-84
2022/03/29 07:55:45;;;;;;;41.78;21.92;;;;;;;;;;6182929;23;20013;-84
2022/03/29 07:58:12;;;;;;;40.97;21.33;;;;;;;;;;6159518;23;20088;-84
2022/03/29 08:00:39;;;;;;;37.40;20.23;;;;;;;;;;6160248;23;20013;-84
2022/03/29 08:03:05;;;;;;;36.90;20.27;;;;;;;;;;6186841;23;20013;-85
2022/03/29 08:05:32;;;;;;;35.75;20.50;;;;;;;;;;6186747;23;20092;-83
2022/03/29 08:07:58;;;;;;;40.55;20.85;;;;;;;;;;6160207;23;20072;-84
2022/03/29 08:10:27;;;;;;;33.85;20.20;;;;;;;;;;6160160;23;20028;-85
2022/03/29 08:12:53;;;;;;;36.28;20.63;;;;;;;;;;6186836;23;20080;-84
2022/03/29 08:15:19;;;;;;;34.83;20.30;;;;;;;;;;6186702;23;20075;-84
2022/03/29 08:17:45;;;;;;;37.50;20.67;;;;;;;;;;6160586;23;20421;-84
2022/03/29 08:20:12;;;;;;;38.25;20.20;;;;;;;;;;6186667;23;20068;-83
2022/03/29 08:22:41;;;;;;;34.03;19.33;;;;;;;;;;6160069;23;20083;-84
2022/03/29 08:25:07;;;;;;;32.95;18.30;;;;;;;;;;6186646;23;20016;-84
2022/03/29 08:27:33;;;;;;;35.90;19.60;;;;;;;;;;6186720;23;20024;-85
2022/03/29 08:29:59;;;;;;;33.88;18.80;;;;;;;;;;6159996;23;20013;-84
2022/03/29 08:32:25;;;;;;;33.97;19.17;;;;;;;;;;6186434;23;20009;-84
2022/03/29 08:34:51;;;;;;;32.70;19.52;;;;;;;;;;6160107;23;20154;-85
2022/03/29 08:37:18;;;;;;;37.30;19.95;;;;;;;;;;6159892;23;20009;-84
2022/03/29 08:39:44;;;;;;;35.50;20.02;;;;;;;;;;6186654;23;20387;-84
2022/03/29 08:42:10;;;;;;;36.63;20.85;;;;;;;;;;6158496;23;20092;-84
2022/03/29 08:44:38;;;;;;;29.75;19.00;;;;;;;;;;6159902;23;20025;-85
2022/03/29 08:47:06;;;;;;;34.55;18.65;;;;;;;;;;6185995;23;20438;-83
2022/03/29 08:49:32;;;;;;;34.83;20.00;;;;;;;;;;6159765;23;20493;-84
2022/03/29 08:51:59;;;;;;;34.50;20.15;;;;;;;;;;6159535;23;20005;-84
2022/03/29 08:54:25;;;;;;;36.70;18.63;;;;;;;;;;6186053;23;20028;-84
2022/03/29 08:56:51;;;;;;;35.65;17.70;;;;;;;;;;6186257;23;20059;-84
2022/03/29 08:59:18;;;;;;;32.90;18.10;;;;;;;;;;6159759;23;20020;-84
2022/03/29 09:01:44;;;;;;;30.23;18.13;;;;;;;;;;6159531;23;20079;-85
2022/03/29 09:04:14;;;;;;;33.05;18.10;;;;;;;;;;6159856;23;20055;-84
2022/03/29 09:06:55;;;;;;;33.15;17.55;;;;;;;;;;6159613;23;20049;-84
2022/03/29 09:09:26;;;;;;;30.70;17.75;;;;;;;;;;6133148;23;20017;-85
2022/03/29 09:11:53;;;;;;;34.70;18.30;;;;;;;;;;6158196;23;20048;-85
2022/03/29 09:14:19;;;;;;;34.22;18.70;;;;;;;;;;6159807;23;20069;-85
2022/03/29 09:16:46;;;;;;;31.27;18.23;;;;;;;;;;6182215;23;20020;-84
2022/03/29 09:19:12;;;;;;;35.33;18.60;;;;;;;;;;6158162;23;20094;-84
2022/03/29 09:21:42;;;;;;;33.20;18.20;;;;;;;;;;6159366;23;20024;-84
2022/03/29 09:24:09;;;;;;;28.73;18.33;;;;;;;;;;6186062;23;20017;-84
2022/03/29 09:26:43;;;;;;;34.30;17.67;;;;;;;;;;6185835;23;20350;-84
2022/03/29 09:29:17;;;;;;;35.45;16.30;;;;;;;;;;6185568;23;20465;-84
2022/03/29 09:31:44;;;;;;;32.47;15.23;;;;;;;;;;6185610;23;20044;-85
2022/03/29 09:34:23;;;;;;;32.30;15.60;;;;;;;;;;6159447;23;20070;-84
2022/03/29 09:36:53;;;;;;;25.88;14.73;;;;;;;;;;6185838;23;20023;-84
2022/03/29 09:39:34;;;;;;;33.35;14.38;;;;;;;;;;6159464;23;20024;-84
2022/03/29 09:42:01;;;;;;;29.83;15.10;;;;;;;;;;6158925;23;20059;-84
2022/03/29 09:44:35;;;;;;;28.60;13.82;;;;;;;;;;6157119;23;20453;-84
2022/03/29 09:47:04;;;;;;;24.02;14.10;;;;;;;;;;6185413;23;20118;-84
2022/03/29 09:49:30;;;;;;;32.67;13.93;;;;;;;;;;6159049;23;20028;-84
2022/03/29 09:52:09;;;;;;;29.25;14.82;;;;;;;;;;6159002;23;20017;-84
2022/03/29 09:54:36;;;;;;;30.45;14.55;;;;;;;;;;6159175;23;20021;-84
2022/03/29 09:57:02;;;;;;;25.65;14.25;;;;;;;;;;6185646;23;20013;-84
2022/03/29 09:59:28;;;;;;;26.52;13.48;;;;;;;;;;6159162;23;20469;-84
2022/03/29 10:01:57;;;;;;;26.60;13.60;;;;;;;;;;6157756;23;20018;-84
2022/03/29 10:04:24;;;;;;;35.97;13.82;;;;;;;;;;6185517;23;20024;-84
2022/03/29 10:06:52;;;;;;;24.13;13.90;;;;;;;;;;6157386;23;20016;-84
2022/03/29 10:09:28;;;;;;;26.02;13.25;;;;;;;;;;6159013;23;20044;-84
2022/03/29 10:11:58;;;;;;;24.73;12.10;;;;;;;;;;6184027;23;20009;-84
2022/03/29 10:14:25;;;;;;;25.10;13.23;;;;;;;;;;6134451;23;20092;-84
2022/03/29 10:16:52;;;;;;;28.90;12.43;;;;;;;;;;6183757;23;20009;-84
2022/03/29 10:19:19;;;;;;;22.73;12.18;;;;;;;;;;6159088;23;20021;-84
2022/03/29 10:21:46;;;;;;;27.05;12.63;;;;;;;;;;6132960;23;20013;-84
2022/03/29 10:24:16;;;;;;;25.05;12.55;;;;;;;;;;6158986;23;20017;-84
2022/03/29 10:26:43;;;;;;;26.08;12.82;;;;;;;;;;6130902;23;20013;-84
2022/03/29 10:29:09;;;;;;;24.02;11.20;;;;;;;;;;6158863;23;20017;-85
2022/03/29 10:31:38;;;;;;;26.50;11.40;;;;;;;;;;6157382;23;20009;-84
2022/03/29 10:34:12;;;;;;;22.52;10.75;;;;;;;;;;6158736;23;20023;-84
2022/03/29 10:36:56;;;;;;;26.00;10.80;;;;;;;;;;6157783;23;20005;-84
2022/03/29 10:39:22;;;;;;;25.05;11.65;;;;;;;;;;6134158;23;20071;-84
2022/03/29 10:41:49;;;;;;;23.52;10.88;;;;;;;;;;6155353;23;20021;-84
2022/03/29 10:44:15;;;;;;;24.52;11.38;;;;;;;;;;6183523;23;20030;-84
2022/03/29 10:46:45;;;;;;;25.85;11.00;;;;;;;;;;6158459;23;20307;-84
2022/03/29 10:49:17;;;;;;;24.52;11.00;;;;;;;;;;6158773;23;20076;-84
2022/03/29 10:51:43;;;;;;;26.63;10.98;;;;;;;;;;6158643;23;20386;-84
2022/03/29 10:54:29;;;;;;;23.50;10.48;;;;;;;;;;6153642;23;20021;-86
2022/03/29 10:57:00;;;;;;;28.48;11.25;;;;;;;;;;6153690;23;20314;-84
2022/03/29 10:59:27;;;;;;;22.95;10.20;;;;;;;;;;6153898;23;20481;-85
2022/03/29 11:02:09;;;;;;;23.42;10.02;;;;;;;;;;6128779;23;20025;-85
2022/03/29 11:04:36;;;;;;;23.58;10.13;;;;;;;;;;6155253;23;20024;-84
2022/03/29 11:07:08;;;;;;;26.98;10.40;;;;;;;;;;6153575;23;20132;-84
2022/03/29 11:09:35;;;;;;;23.63;11.25;;;;;;;;;;6153695;23;20014;-84
2022/03/29 11:12:01;;;;;;;21.17;10.07;;;;;;;;;;6154948;23;20346;-84
2022/03/29 11:14:31;;;;;;;21.80;10.15;;;;;;;;;;6153799;23;20014;-85
2022/03/29 11:17:09;;;;;;;23.27;10.73;;;;;;;;;;6153460;23;20013;-84
2022/03/29 11:19:48;;;;;;;24.13;10.30;;;;;;;;;;6151821;23;20021;-85
2022/03/29 11:22:29;;;;;;;24.77;9.90;;;;;;;;;;6153364;23;20059;-84
2022/03/29 11:25:06;;;;;;;22.95;10.48;;;;;;;;;;6153715;23;20517;-84
2022/03/29 11:27:33;;;;;;;24.52;10.18;;;;;;;;;;6155394;23;20316;-84
2022/03/29 11:30:00;;;;;;;20.90;8.88;;;;;;;;;;6154488;23;20013;-84
2022/03/29 11:32:26;;;;;;;25.70;9.75;;;;;;;;;;6153946;23;20084;-84
2022/03/29 11:34:56;;;;;;;22.80;10.40;;;;;;;;;;6157237;23;20051;-85
2022/03/29 11:37:26;;;;;;;22.17;8.88;;;;;;;;;;6155450;23;20392;-84
2022/03/29 11:39:52;;;;;;;24.00;10.05;;;;;;;;;;6156256;23;20009;-84
2022/03/29 11:42:18;;;;;;;19.67;8.88;;;;;;;;;;6155305;23;20088;-85
2022/03/29 11:44:47;;;;;;;22.80;9.90;;;;;;;;;;6155173;23;20013;-84
2022/03/29 11:47:13;;;;;;;21.23;9.52;;;;;;;;;;6155384;23;20351;-84
2022/03/29 11:49:40;;;;;;;20.90;9.68;;;;;;;;;;6157287;23;20017;-84
2022/03/29 11:52:08;;;;;;;22.05;9.02;;;;;;;;;;6157245;23;20457;-88
2022/03/29 11:54:47;;;;;;;18.92;8.98;;;;;;;;;;6155835;23;20017;-84
2022/03/29 11:57:24;;;;;;;16.35;9.32;;;;;;;;;;6155352;23;20022;-84
2022/03/29 11:59:51;;;;;;;20.55;8.27;;;;;;;;;;6155177;23;20030;-84
2022/03/29 12:02:22;;;;;;;23.45;8.20;;;;;;;;;;6157074;23;20076;-84
2022/03/29 12:04:49;;;;;;;24.15;8.27;;;;;;;;;;6157231;23;20068;-84
2022/03/29 12:07:15;;;;;;;28.23;8.07;;;;;;;;;;6156997;23;20049;-84
2022/03/29 12:09:47;;;;;;;19.50;7.45;;;;;;;;;;6154942;23;20014;-84
2022/03/29 12:12:14;;;;;;;27.10;8.32;;;;;;;;;;6155319;23;20041;-84
2022/03/29 12:14:40;;;;;;;21.83;7.70;;;;;;;;;;6156528;23;20018;-84
2022/03/29 12:17:08;;;;;;;19.85;6.90;;;;;;;;;;6154312;23;20013;-85
2022/03/29 12:19:35;;;;;;;26.60;7.32;;;;;;;;;;6154993;23;20024;-84
2022/03/29 12:22:01;;;;;;;21.20;7.07;;;;;;;;;;6155103;23;20024;-84
2022/03/29 12:24:31;;;;;;;20.38;7.78;;;;;;;;;;6156937;23;20017;-85
2022/03/29 12:27:01;;;;;;;20.25;8.07;;;;;;;;;;6156735;23;20506;-85
2022/03/29 12:29:27;;;;;;;21.23;8.07;;;;;;;;;;6155495;23;20014;-85
2022/03/29 12:31:54;;;;;;;29.83;9.02;;;;;;;;;;6154994;23;20010;-85
2022/03/29 12:34:23;;;;;;;26.23;8.98;;;;;;;;;;6156807;23;20010;-85
2022/03/29 12:36:53;;;;;;;21.73;7.85;;;;;;;;;;6155109;23;20537;-85
2022/03/29 12:39:19;;;;;;;18.92;8.13;;;;;;;;;;6156856;23;20353;-85
2022/03/29 12:41:48;;;;;;;22.75;8.77;;;;;;;;;;6155095;23;20021;-85
2022/03/29 12:44:29;;;;;;;20.05;9.27;;;;;;;;;;6156112;23;20228;-85
2022/03/29 12:46:55;;;;;;;18.55;8.93;;;;;;;;;;6156921;23;20106;-85
2022/03/29 12:49:21;;;;;;;21.02;9.02;;;;;;;;;;6154704;23;20454;-85
2022/03/29 12:51:52;;;;;;;23.75;8.73;;;;;;;;;;6154656;23;20489;-85
2022/03/29 12:54:18;;;;;;;18.20;9.00;;;;;;;;;;6176777;23;20048;-85
2022/03/29 12:56:45;;;;;;;24.15;8.30;;;;;;;;;;6186588;23;20017;-85
2022/03/29 12:59:32;;;;;;;21.30;8.20;;;;;;;;;;6159628;23;20032;-85
2022/03/29 13:02:21;;;;;;;21.30;8.57;;;;;;;;;;6185037;23;20315;-85
2022/03/29 13:04:53;;;;;;;24.20;8.38;;;;;;;;;;6171192;23;20048;-85
2022/03/29 13:07:32;;;;;;;19.15;8.25;;;;;;;;;;6159563;23;20013;-85
2022/03/29 13:10:00;;;;;;;25.67;8.70;;;;;;;;;;6159453;23;20428;-85
2022/03/29 13:12:26;;;;;;;24.30;9.00;;;;;;;;;;6185653;23;20083;-85
2022/03/29 13:14:52;;;;;;;21.35;8.52;;;;;;;;;;6185411;23;20020;-85
2022/03/29 13:17:18;;;;;;;22.85;8.95;;;;;;;;;;6158762;23;20013;-85
2022/03/29 13:19:54;;;;;;;31.05;9.93;;;;;;;;;;6185084;23;20017;-85
2022/03/29 13:22:20;;;;;;;31.80;10.40;;;;;;;;;;6158836;23;20472;-85
2022/03/29 13:24:46;;;;;;;24.00;9.65;;;;;;;;;;6159147;23;20017;-85
2022/03/29 13:27:12;;;;;;;26.20;9.60;;;;;;;;;;6186332;23;20339;-83
2022/03/29 13:29:39;;;;;;;26.13;10.10;;;;;;;;;;6185841;23;20404;-84
2022/03/29 13:32:09;;;;;;;23.52;9.88;;;;;;;;;;6184678;23;20088;-84
2022/03/29 13:34:35;;;;;;;25.15;10.30;;;;;;;;;;6159076;23;20020;-84
2022/03/29 13:37:01;;;;;;;25.15;10.60;;;;;;;;;;6185843;23;20435;-84
2022/03/29 13:39:27;;;;;;;26.58;10.93;;;;;;;;;;6186137;23;20017;-83
2022/03/29 13:41:53;;;;;;;23.15;10.63;;;;;;;;;;6159572;23;20395;-83
2022/03/29 13:44:19;;;;;;;23.15;10.75;;;;;;;;;;6185794;23;20013;-83
2022/03/29 13:46:45;;;;;;;22.67;10.70;;;;;;;;;;6159148;23;20029;-83
2022/03/29 13:49:11;;;;;;;22.38;10.35;;;;;;;;;;6185932;23;20068;-83
2022/03/29 13:51:37;;;;;;;20.50;10.57;;;;;;;;;;6159177;23;20466;-83
2022/03/29 13:54:04;;;;;;;22.02;10.60;;;;;;;;;;6159061;23;20021;-83
2022/03/29 13:56:32;;;;;;;22.35;10.13;;;;;;;;;;6158908;23;20009;-83
2022/03/29 13:59:03;;;;;;;21.38;10.55;;;;;;;;;;6159231;23;20351;-83
2022/03/29 14:01:29;;;;;;;23.98;10.90;;;;;;;;;;6185685;23;20024;-83
2022/03/29 14:03:55;;;;;;;26.02;11.30;;;;;;;;;;6185843;23;20013;-83
2022/03/29 14:06:21;;;;;;;27.65;11.35;;;;;;;;;;6158886;23;20016;-83
2022/03/29 14:08:47;;;;;;;24.67;10.77;;;;;;;;;;6159103;23;20017;-83
2022/03/29 14:11:14;;;;;;;23.73;11.02;;;;;;;;;;6159312;23;20017;-83
2022/03/29 14:13:42;;;;;;;20.13;11.32;;;;;;;;;;6158790;23;20024;-83
2022/03/29 14:16:08;;;;;;;24.05;11.25;;;;;;;;;;6158806;23;20375;-84
2022/03/29 14:18:34;;;;;;;23.05;11.18;;;;;;;;;;6159014;23;20095;-84
2022/03/29 14:21:01;;;;;;;22.75;10.65;;;;;;;;;;6158772;23;20051;-83
2022/03/29 14:23:27;;;;;;;18.77;10.23;;;;;;;;;;6158878;23;20346;-83
2022/03/29 14:25:54;;;;;;;28.05;10.20;;;;;;;;;;6158686;23;20021;-84
2022/03/29 14:28:21;;;;;;;23.52;11.32;;;;;;;;;;6158874;23;20020;-83